Time;durP1;ratioP1;P1;durP2;ratioP2;P2;SDS_P1;SDS_P2;PMS_P1;PMS_P2;Temp;Humidity;BMP_temperature;BMP_pressure;BME280_temperature;BME280_humidity;BME280_pressure;Samples;Min_cycle;Max_cycle;Signal;HPM_P1;HPM_P2
2022/08/28 00:00:53;;;;;;;7.20;4.45;;;;;;;22.31;54.86;100529.06;4142095;28;20037;-64
2022/08/28 00:02:57;;;;;;;9.02;4.57;;;;;;;22.18;54.97;100527.75;4144210;28;20040;-65
2022/08/28 00:05:01;;;;;;;;;;;;;;;22.15;55.22;100527.81;4149168;28;20081;-64
2022/08/28 00:07:04;;;;;;;6.32;4.10;;;;;;;22.10;55.15;100527.97;4147314;28;19925;-65
2022/08/28 00:09:07;;;;;;;6.10;4.13;;;;;;;22.13;55.25;100524.38;4145776;28;20435;-64
2022/08/28 00:11:13;;;;;;;7.95;4.53;;;;;;;22.07;55.29;100530.72;4141149;28;20048;-64
2022/08/28 00:13:20;;;;;;;9.10;4.68;;;;;;;22.17;54.98;100533.94;4139328;28;20042;-64
2022/08/28 00:15:25;;;;;;;6.80;4.47;;;;;;;22.13;55.03;100527.03;4144959;28;20432;-64
2022/08/28 00:17:28;;;;;;;10.80;4.88;;;;;;;22.10;55.14;100532.41;4140171;28;20042;-64
2022/08/28 00:19:31;;;;;;;8.10;4.75;;;;;;;22.14;55.05;100537.56;4142803;28;20041;-64
2022/08/28 00:21:41;;;;;;;6.07;4.05;;;;;;;22.10;55.24;100532.41;4140289;28;20069;-64
2022/08/28 00:23:44;;;;;;;;;;;;;;;22.02;55.41;100529.16;4145396;28;20038;-64
2022/08/28 00:25:47;;;;;;;6.22;3.80;;;;;;;22.07;55.11;100525.44;4142984;28;19936;-64
2022/08/28 00:27:52;;;;;;;10.70;4.40;;;;;;;22.12;55.19;100525.28;4147891;28;20492;-64
2022/08/28 00:29:57;;;;;;;6.93;4.18;;;;;;;22.19;55.04;100528.59;4141702;28;20038;-64
2022/08/28 00:32:00;;;;;;;7.15;4.72;;;;;;;22.20;54.77;100527.69;4139444;28;20606;-64
2022/08/28 00:34:03;;;;;;;10.15;4.40;;;;;;;22.12;55.08;100527.94;4139359;28;20550;-64
2022/08/28 00:36:06;;;;;;;8.45;4.40;;;;;;;22.10;55.08;100532.41;4138297;28;20069;-64
2022/08/28 00:38:11;;;;;;;9.98;4.88;;;;;;;22.12;54.96;100535.88;4140459;28;20050;-64
2022/08/28 00:40:17;;;;;;;7.22;4.75;;;;;;;22.12;55.07;100535.88;4146333;28;20128;-64
2022/08/28 00:42:33;;;;;;;8.05;4.78;;;;;;;22.02;55.20;100531.78;4146429;28;20488;-64
2022/08/28 00:44:36;;;;;;;8.73;4.80;;;;;;;22.12;54.95;100525.28;4141852;28;20589;-64
2022/08/28 00:46:41;;;;;;;9.07;4.88;;;;;;;22.14;54.86;100529.63;4147422;28;20420;-64
2022/08/28 00:48:44;;;;;;;6.50;3.75;;;;;;;21.99;55.29;100532.78;4146288;28;20113;-64
2022/08/28 00:53:07;;;;;;;6.00;3.92;;;;;;;22.06;55.10;100534.28;4140527;28;20137;-64
2022/08/28 00:55:16;;;;;;;8.70;4.78;;;;;;;22.04;55.34;100533.47;4138918;28;20049;-64
2022/08/28 00:57:24;;;;;;;13.50;5.20;;;;;;;22.24;54.25;100537.25;4140176;28;20134;-65
2022/08/28 00:59:28;;;;;;;11.43;5.22;;;;;;;22.17;54.27;100531.31;4146145;28;20057;-64
2022/08/28 01:01:32;;;;;;;7.35;4.53;;;;;;;22.02;54.59;100532.69;4141422;28;20046;-64
2022/08/28 01:03:36;;;;;;;5.97;4.38;;;;;;;21.92;54.98;100544.47;4134750;28;20039;-64
2022/08/28 01:05:42;;;;;;;9.00;4.72;;;;;;;21.85;55.27;100527.91;4140614;28;20053;-64
2022/08/28 01:07:46;;;;;;;8.65;4.50;;;;;;;21.90;54.94;100526.00;4135684;28;20037;-64
2022/08/28 01:09:52;;;;;;;7.03;4.75;;;;;;;21.91;54.94;100533.00;4138351;28;20045;-64
2022/08/28 01:12:00;;;;;;;6.38;3.85;;;;;;;21.88;55.18;100535.75;4144292;28;20038;-64
2022/08/28 01:14:04;;;;;;;6.68;4.45;;;;;;;21.91;54.94;100527.72;4140834;28;20042;-64
2022/08/28 01:16:08;;;;;;;9.68;4.80;;;;;;;21.89;55.03;100528.66;4143854;28;20092;-64
2022/08/28 01:18:14;;;;;;;;;;;;;;;21.81;55.17;100536.00;4144277;28;20132;-64
2022/08/28 01:20:20;;;;;;;8.30;4.80;;;;;;;21.85;55.14;100538.50;4153415;28;19921;-65
2022/08/28 01:22:30;;;;;;;13.50;4.50;;;;;;;21.89;55.14;100541.91;4138755;28;20037;-64
2022/08/28 01:24:37;;;;;;;10.65;4.75;;;;;;;21.89;55.09;100532.19;4139296;28;20042;-64
2022/08/28 01:26:40;;;;;;;7.00;4.55;;;;;;;21.90;55.09;100533.94;4140043;28;20043;-64
2022/08/28 01:28:44;;;;;;;7.32;4.20;;;;;;;21.91;55.01;100537.44;4143939;28;20046;-64
2022/08/28 01:30:48;;;;;;;8.23;4.55;;;;;;;21.96;54.91;100536.38;4145070;28;20042;-64
2022/08/28 01:32:53;;;;;;;7.53;4.50;;;;;;;21.95;54.94;100539.94;4136561;28;20084;-64
2022/08/28 01:34:56;;;;;;;7.57;4.43;;;;;;;21.93;55.04;100541.78;4145481;28;20060;-64
2022/08/28 01:36:59;;;;;;;6.85;4.72;;;;;;;21.93;54.75;100536.47;4143678;28;20038;-64
2022/08/28 01:39:09;;;;;;;9.10;4.80;;;;;;;21.91;54.95;100534.78;4134683;28;20053;-64
2022/08/28 01:41:13;;;;;;;7.75;4.93;;;;;;;21.96;55.03;100533.72;4143401;28;20049;-64
2022/08/28 01:43:19;;;;;;;8.13;4.32;;;;;;;21.89;55.01;100540.13;4146470;28;20069;-64
2022/08/28 01:45:24;;;;;;;7.82;4.57;;;;;;;21.93;54.98;100539.13;4144751;28;20060;-64
2022/08/28 01:47:27;;;;;;;9.05;4.53;;;;;;;21.94;54.98;100543.50;4137089;28;20079;-64
2022/08/28 01:49:30;;;;;;;8.48;4.28;;;;;;;21.98;54.68;100541.63;4139033;28;20041;-64
2022/08/28 01:51:33;;;;;;;6.55;4.65;;;;;;;21.88;55.17;100548.13;4135233;28;20524;-64
2022/08/28 01:53:41;;;;;;;8.93;5.22;;;;;;;21.94;54.90;100547.94;4140463;28;20136;-64
2022/08/28 01:55:47;;;;;;;7.38;4.30;;;;;;;21.85;55.32;100537.63;4139005;28;20121;-64
2022/08/28 01:57:53;;;;;;;6.53;4.40;;;;;;;21.83;55.43;100542.97;4157910;28;20043;-64
2022/08/28 01:59:56;;;;;;;8.13;4.75;;;;;;;21.77;55.70;100541.38;4139934;28;20034;-64
2022/08/28 02:02:00;;;;;;;7.00;4.30;;;;;;;21.76;55.86;100544.09;4131254;28;20038;-64
2022/08/28 02:04:04;;;;;;;7.00;4.40;;;;;;;21.89;55.16;100550.72;4142658;28;20060;-64
2022/08/28 02:06:07;;;;;;;6.93;4.18;;;;;;;21.81;55.54;100552.72;4146883;28;20550;-64
2022/08/28 02:08:10;;;;;;;7.63;3.97;;;;;;;21.81;55.44;100543.94;4143975;28;20048;-64
2022/08/28 02:10:13;;;;;;;9.10;4.15;;;;;;;21.80;55.53;100551.03;4139017;28;20046;-64
2022/08/28 02:12:16;;;;;;;7.72;5.03;;;;;;;21.83;55.48;100555.31;4137278;28;20065;-64
2022/08/28 02:14:21;;;;;;;10.32;4.57;;;;;;;21.78;55.33;100552.81;4137472;28;20046;-64
2022/08/28 02:16:24;;;;;;;9.30;4.93;;;;;;;21.76;55.53;100552.03;4144038;28;20034;-64
2022/08/28 02:18:27;;;;;;;7.43;4.35;;;;;;;21.67;55.74;100549.63;4146686;28;20041;-64
2022/08/28 02:20:31;;;;;;;12.40;4.47;;;;;;;21.67;55.86;100549.63;4144029;28;20487;-64
2022/08/28 02:22:35;;;;;;;6.80;3.40;;;;;;;21.65;55.91;100544.41;4132929;28;20046;-64
2022/08/28 02:24:39;;;;;;;11.85;3.90;;;;;;;21.69;55.92;100545.19;4143586;28;20045;-64
2022/08/28 02:26:41;;;;;;;7.57;3.80;;;;;;;21.69;55.90;100542.53;4143087;28;20053;-64
2022/08/28 02:28:44;;;;;;;8.73;3.78;;;;;;;21.61;55.91;100551.56;4144083;28;20108;-64
2022/08/28 02:30:49;;;;;;;8.25;3.60;;;;;;;21.59;56.03;100545.44;4145494;28;20508;-64
2022/08/28 02:32:52;;;;;;;5.97;3.47;;;;;;;21.55;56.28;100545.59;4144647;28;20041;-64
2022/08/28 02:34:55;;;;;;;4.73;3.60;;;;;;;21.58;56.20;100546.38;4137675;28;20033;-64
2022/08/28 02:36:58;;;;;;;7.53;3.70;;;;;;;21.51;56.60;100555.41;4139465;28;20080;-64
2022/08/28 02:39:01;;;;;;;8.48;3.50;;;;;;;21.56;56.69;100549.97;4137952;28;20038;-64
2022/08/28 02:41:04;;;;;;;7.28;3.70;;;;;;;21.72;56.15;100545.94;4145339;28;20045;-64
2022/08/28 02:43:07;;;;;;;7.32;4.05;;;;;;;21.69;56.18;100553.97;4141346;28;20069;-64
2022/08/28 02:45:11;;;;;;;6.65;3.95;;;;;;;21.67;56.02;100552.28;4141529;28;20064;-64
2022/08/28 02:47:15;;;;;;;11.23;4.40;;;;;;;21.63;56.14;100550.66;4146271;28;20092;-64
2022/08/28 02:49:18;;;;;;;9.00;4.00;;;;;;;21.63;56.09;100555.97;4138378;28;20129;-64
2022/08/28 02:51:21;;;;;;;8.38;4.20;;;;;;;21.54;56.29;100552.66;4144065;28;20042;-64
2022/08/28 02:53:24;;;;;;;6.82;4.20;;;;;;;21.52;56.17;100549.19;4139048;28;20045;-64
2022/08/28 02:55:27;;;;;;;6.63;3.65;;;;;;;21.42;56.50;100551.22;4140561;28;20049;-64
2022/08/28 02:57:35;;;;;;;7.15;4.05;;;;;;;21.44;56.42;100543.25;4139856;28;20049;-64
2022/08/28 02:59:38;;;;;;;7.88;4.35;;;;;;;21.35;56.77;100549.66;4144784;28;20115;-64
2022/08/28 03:01:41;;;;;;;6.40;3.83;;;;;;;21.44;56.61;100553.81;4135520;28;20120;-64
2022/08/28 03:03:45;;;;;;;8.13;3.92;;;;;;;21.42;56.77;100550.34;4141750;28;20129;-63
2022/08/28 03:05:48;;;;;;;6.78;4.40;;;;;;;21.38;56.66;100544.28;4135204;28;20031;-64
2022/08/28 03:07:53;;;;;;;9.75;4.75;;;;;;;21.37;56.93;100554.91;4138232;28;20038;-64
2022/08/28 03:09:56;;;;;;;;;;;;;;;21.22;57.15;100549.16;4140607;28;20125;-64
2022/08/28 03:11:59;;;;;;;7.90;4.38;;;;;;;21.22;57.42;100543.88;4135060;28;19997;-64
2022/08/28 03:14:02;;;;;;;8.98;4.38;;;;;;;21.26;57.47;100542.88;4134379;28;20069;-64
2022/08/28 03:16:05;;;;;;;10.65;4.70;;;;;;;21.38;57.17;100538.13;4142882;28;20060;-64
2022/08/28 03:18:08;;;;;;;7.80;4.13;;;;;;;21.22;57.32;100537.72;4142237;28;20092;-64
2022/08/28 03:20:15;;;;;;;11.80;4.03;;;;;;;21.19;57.41;100537.81;4146418;28;20407;-64
2022/08/28 03:23:25;;;;;;;6.50;4.18;;;;;;;21.14;57.56;100540.56;4142667;28;20112;-64
2022/08/28 03:24:45;;;;;;;7.30;3.92;;;;;;;21.17;57.47;100537.81;4135367;28;20556;-64
2022/08/28 03:26:48;;;;;;;5.13;3.60;;;;;;;21.11;57.57;100535.34;4134425;28;20054;-64
2022/08/28 03:28:54;;;;;;;7.80;3.92;;;;;;;21.23;57.36;100542.06;4141403;28;20296;-64
2022/08/28 03:30:58;;;;;;;5.97;3.90;;;;;;;21.21;57.37;100539.47;4143012;28;20073;-64
2022/08/28 03:33:00;;;;;;;9.10;3.65;;;;;;;21.08;57.54;100546.03;4143121;28;20057;-64
2022/08/28 03:35:05;;;;;;;6.95;4.05;;;;;;;21.10;57.38;100539.78;4139572;28;20117;-66
2022/08/28 03:37:09;;;;;;;7.03;3.50;;;;;;;21.03;57.66;100543.50;4145072;28;20667;-64
2022/08/28 03:39:12;;;;;;;7.72;4.00;;;;;;;21.04;57.71;100539.09;4141616;28;20503;-63
2022/08/28 03:41:18;;;;;;;6.57;4.20;;;;;;;21.03;57.81;100538.22;4136160;28;20050;-64
2022/08/28 03:43:23;;;;;;;5.80;3.88;;;;;;;21.12;57.48;100542.38;4141474;28;20132;-63
2022/08/28 03:45:26;;;;;;;6.88;3.65;;;;;;;21.16;57.40;100543.16;4155039;28;20042;-64
2022/08/28 03:47:29;;;;;;;6.60;3.72;;;;;;;21.09;57.37;100538.06;4143663;28;20045;-63
2022/08/28 03:49:32;;;;;;;5.90;3.67;;;;;;;21.09;57.31;100542.47;4147189;28;20034;-63
2022/08/28 03:51:35;;;;;;;7.40;4.38;;;;;;;21.01;57.63;100539.19;4137993;28;20455;-64
2022/08/28 03:53:40;;;;;;;8.18;4.00;;;;;;;20.99;57.75;100548.94;4140004;28;20045;-63
2022/08/28 03:55:43;;;;;;;8.82;3.78;;;;;;;21.00;57.58;100542.75;4148305;28;20049;-63
2022/08/28 03:57:46;;;;;;;6.88;4.15;;;;;;;20.96;57.84;100546.38;4140310;28;20038;-64
2022/08/28 03:59:51;;;;;;;7.53;3.40;;;;;;;21.02;57.69;100544.41;4144528;28;20057;-64
2022/08/28 04:01:54;;;;;;;5.63;3.53;;;;;;;21.02;57.65;100556.78;4140423;28;20573;-63
2022/08/28 04:03:58;;;;;;;8.13;3.70;;;;;;;20.97;57.78;100556.91;4141927;28;20046;-64
2022/08/28 04:06:01;;;;;;;5.95;3.78;;;;;;;21.12;57.26;100555.59;4142440;28;20036;-63
2022/08/28 04:08:04;;;;;;;8.23;3.63;;;;;;;21.01;57.65;100555.03;4142456;28;20038;-64
2022/08/28 04:10:10;;;;;;;6.55;3.28;;;;;;;20.91;58.09;100555.28;4137294;28;20137;-64
2022/08/28 04:12:14;;;;;;;5.68;3.25;;;;;;;20.93;58.01;100558.75;4140395;28;20046;-64
2022/08/28 04:14:17;;;;;;;6.45;3.33;;;;;;;21.02;57.61;100560.28;4147928;28;20044;-64
2022/08/28 04:16:19;;;;;;;6.88;3.55;;;;;;;21.02;57.69;100562.06;4144311;28;20042;-64
2022/08/28 04:18:23;;;;;;;5.95;3.30;;;;;;;20.89;58.02;100559.75;4147473;28;20072;-64
2022/08/28 04:20:26;;;;;;;10.55;3.45;;;;;;;20.98;57.82;100565.69;4135785;28;20042;-64
2022/08/28 04:22:29;;;;;;;5.93;3.97;;;;;;;20.95;57.89;100564.00;4145977;28;20069;-64
2022/08/28 04:24:32;;;;;;;6.30;3.78;;;;;;;20.91;57.85;100565.88;4141094;28;20037;-64
2022/08/28 04:26:36;;;;;;;8.07;3.78;;;;;;;21.01;57.27;100562.97;4148338;28;21100;-64
2022/08/28 04:28:40;;;;;;;5.80;3.33;;;;;;;20.98;57.55;100557.75;4144811;28;20068;-64
2022/08/28 04:30:43;;;;;;;7.60;3.38;;;;;;;20.85;58.11;100559.88;4144914;28;20038;-64
2022/08/28 04:32:45;;;;;;;7.63;3.08;;;;;;;20.81;58.36;100569.66;4139504;28;20046;-64
2022/08/28 04:34:48;;;;;;;7.03;3.55;;;;;;;20.82;58.33;100559.94;4144894;28;20414;-64
2022/08/28 04:36:51;;;;;;;6.32;3.97;;;;;;;20.82;58.08;100566.13;4146456;28;20415;-64
2022/08/28 04:38:55;;;;;;;12.48;4.03;;;;;;;20.85;57.88;100565.16;4140101;28;20035;-64
2022/08/28 04:40:59;;;;;;;7.55;3.70;;;;;;;20.87;57.67;100566.84;4143598;28;20041;-64
2022/08/28 04:43:03;;;;;;;7.88;4.25;;;;;;;20.71;58.04;100569.03;4141396;28;20056;-63
2022/08/28 04:45:07;;;;;;;5.70;3.60;;;;;;;20.75;57.88;100567.19;4143084;28;20427;-64
2022/08/28 04:47:10;;;;;;;7.50;3.50;;;;;;;20.66;58.30;100570.94;4141137;28;20046;-64
2022/08/28 04:49:14;;;;;;;8.07;3.85;;;;;;;20.60;58.46;100583.41;4143217;28;20461;-64
2022/08/28 04:51:16;;;;;;;7.47;3.50;;;;;;;20.60;58.63;100584.25;4141149;28;20063;-64
2022/08/28 04:53:20;;;;;;;7.22;4.05;;;;;;;20.70;58.09;100575.22;4145124;28;20513;-64
2022/08/28 04:55:23;;;;;;;6.72;3.63;;;;;;;20.68;58.32;100578.81;4138739;28;20046;-63
2022/08/28 04:57:43;;;;;;;9.48;4.32;;;;;;;20.70;58.16;100577.00;4141419;28;20039;-64
2022/08/28 04:59:47;;;;;;;8.18;4.63;;;;;;;20.72;58.13;100580.47;4139640;28;20455;-63
2022/08/28 05:01:50;;;;;;;5.55;3.33;;;;;;;20.62;58.36;100579.81;4139299;28;20411;-64
2022/08/28 05:03:56;;;;;;;8.23;3.70;;;;;;;20.59;58.44;100579.91;4140825;28;20436;-64
2022/08/28 05:05:59;;;;;;;6.13;4.00;;;;;;;20.69;58.20;100585.81;4141184;28;20097;-64
2022/08/28 05:08:02;;;;;;;5.20;3.30;;;;;;;20.61;58.33;100587.78;4140226;28;20046;-64
2022/08/28 05:10:06;;;;;;;6.28;3.60;;;;;;;20.63;58.57;100591.25;4140173;28;20042;-64
2022/08/28 05:12:14;;;;;;;7.32;3.60;;;;;;;20.64;58.49;100593.84;4137622;28;20038;-64
2022/08/28 05:14:18;;;;;;;5.28;3.30;;;;;;;20.60;58.69;100589.53;4144074;28;20046;-64
2022/08/28 05:16:23;;;;;;;8.88;4.35;;;;;;;20.72;58.38;100596.31;4146663;28;20044;-64
2022/08/28 05:18:26;;;;;;;6.45;3.38;;;;;;;20.63;58.60;100607.09;4145185;28;20570;-64
2022/08/28 05:20:29;;;;;;;7.38;3.50;;;;;;;20.62;58.50;100593.03;4141884;28;20072;-64
2022/08/28 05:22:32;;;;;;;7.45;3.20;;;;;;;20.59;58.56;100601.03;4140685;28;20037;-64
2022/08/28 05:24:36;;;;;;;6.03;3.63;;;;;;;20.56;58.51;100596.69;4143736;28;20072;-64
2022/08/28 05:26:40;;;;;;;6.40;3.58;;;;;;;20.55;58.74;100604.66;4139441;28;20498;-64
2022/08/28 05:28:43;;;;;;;5.85;3.25;;;;;;;20.58;58.43;100604.56;4142290;28;20041;-64
2022/08/28 05:30:47;;;;;;;10.38;3.45;;;;;;;20.52;58.88;100613.50;4146233;28;20451;-64
2022/08/28 05:32:51;;;;;;;8.13;3.60;;;;;;;20.60;58.67;100608.03;4147231;28;20463;-63
2022/08/28 05:34:54;;;;;;;5.68;3.53;;;;;;;20.64;58.70;100611.47;4150417;28;20034;-64
2022/08/28 05:36:57;;;;;;;6.10;3.53;;;;;;;20.60;58.66;100623.00;4147415;28;20053;-63
2022/08/28 05:39:02;;;;;;;12.15;4.60;;;;;;;20.63;58.45;100620.28;4134877;28;20576;-64
2022/08/28 05:41:06;;;;;;;12.07;4.43;;;;;;;20.65;58.62;100621.16;4143064;28;20052;-64
2022/08/28 05:43:09;;;;;;;8.70;3.57;;;;;;;20.63;58.56;100621.16;4137902;28;20496;-63
2022/08/28 05:45:12;;;;;;;4.70;3.22;;;;;;;20.67;58.30;100620.22;4143724;28;20038;-63
2022/08/28 05:47:15;;;;;;;8.27;3.72;;;;;;;20.55;58.89;100620.50;4147137;28;20042;-64
2022/08/28 05:49:25;;;;;;;8.43;3.65;;;;;;;20.55;58.92;100623.13;4137532;28;20034;-63
2022/08/28 05:51:30;;;;;;;7.78;3.55;;;;;;;20.57;58.57;100626.59;4139087;28;20050;-64
2022/08/28 05:53:34;;;;;;;7.45;3.75;;;;;;;20.54;58.67;100630.16;4138050;28;20054;-64
2022/08/28 05:55:39;;;;;;;5.60;3.08;;;;;;;20.58;58.62;100630.97;4139282;28;20038;-64
2022/08/28 05:57:42;;;;;;;7.82;3.90;;;;;;;20.67;58.36;100622.00;4139730;28;20455;-64
2022/08/28 05:59:45;;;;;;;9.93;4.38;;;;;;;20.63;58.61;100628.22;4138625;28;20038;-63
2022/08/28 06:01:49;;;;;;;6.28;4.03;;;;;;;20.64;58.79;100635.25;4131387;28;20042;-64
2022/08/28 06:03:55;;;;;;;9.85;4.10;;;;;;;20.66;58.85;100626.41;4142002;28;20049;-64
2022/08/28 06:06:00;;;;;;;11.90;3.55;;;;;;;20.70;58.27;100624.56;4144927;28;20041;-63
2022/08/28 06:08:03;;;;;;;6.05;3.28;;;;;;;20.66;58.25;100622.84;4143316;28;20045;-64
2022/08/28 06:10:06;;;;;;;13.65;3.92;;;;;;;20.64;58.33;100629.97;4144819;28;20488;-64
2022/08/28 06:12:12;;;;;;;10.32;4.35;;;;;;;20.64;58.69;100629.97;4141846;28;20061;-64
2022/08/28 06:14:19;;;;;;;8.15;3.42;;;;;;;20.65;58.13;100637.84;4139580;28;20072;-64
2022/08/28 06:16:22;;;;;;;8.95;3.45;;;;;;;20.65;58.09;100624.66;4142860;28;20133;-65
2022/08/28 06:18:25;;;;;;;7.22;3.90;;;;;;;20.63;58.24;100629.06;4140280;28;20129;-65
2022/08/28 06:20:28;;;;;;;10.30;3.63;;;;;;;20.58;58.85;100629.19;4143337;28;20065;-65
2022/08/28 06:22:33;;;;;;;7.03;3.80;;;;;;;20.54;58.72;100630.16;4144535;28;20052;-64
2022/08/28 06:24:36;;;;;;;10.80;4.25;;;;;;;20.71;58.33;100624.50;4160667;28;20045;-64
2022/08/28 06:26:39;;;;;;;7.55;3.72;;;;;;;20.64;58.48;100630.81;4136556;28;20046;-64
2022/08/28 06:28:42;;;;;;;11.48;3.78;;;;;;;20.65;58.95;100634.34;4140740;28;20126;-64
2022/08/28 06:30:45;;;;;;;6.28;3.33;;;;;;;20.78;58.15;100633.16;4137380;28;20042;-66
2022/08/28 06:33:09;;;;;;;6.88;3.30;;;;;;;20.83;58.05;100638.31;4130623;28;20104;-64
2022/08/28 06:35:12;;;;;;;6.80;3.30;;;;;;;20.73;58.41;100635.03;4134302;28;20100;-67
2022/08/28 06:37:15;;;;;;;6.68;3.20;;;;;;;20.75;58.39;100635.88;4133834;28;20074;-67
2022/08/28 06:39:20;;;;;;;8.77;3.58;;;;;;;20.84;58.10;100633.00;4147432;28;20412;-70
2022/08/28 06:41:23;;;;;;;7.60;3.80;;;;;;;20.90;57.91;100640.75;4144365;28;20033;-69
2022/08/28 06:43:28;;;;;;;18.02;3.85;;;;;;;20.99;57.42;100641.44;4141380;28;20466;-68
2022/08/28 06:45:31;;;;;;;7.70;3.50;;;;;;;20.90;57.85;100640.75;4141510;28;20042;-65
2022/08/28 06:47:34;;;;;;;8.23;3.80;;;;;;;20.90;57.79;100645.19;4146052;28;20046;-66
2022/08/28 06:49:37;;;;;;;7.05;3.42;;;;;;;20.93;57.36;100647.75;4145622;28;20471;-71
2022/08/28 06:51:40;;;;;;;7.22;3.53;;;;;;;20.93;57.58;100651.25;4144478;28;20042;-68
2022/08/28 06:53:45;;;;;;;8.23;3.55;;;;;;;20.99;57.25;100652.88;4141445;28;20076;-65
2022/08/28 06:55:58;;;;;;;10.02;4.07;;;;;;;20.97;57.40;100645.88;4146011;28;20041;-63
2022/08/28 06:58:01;;;;;;;10.90;3.75;;;;;;;20.96;57.45;100658.25;4143773;28;20056;-64
2022/08/28 07:00:05;;;;;;;10.02;4.55;;;;;;;21.02;57.59;100659.88;4144627;28;20046;-73
2022/08/28 07:02:08;;;;;;;8.20;3.45;;;;;;;20.99;57.58;100650.22;4152139;28;20053;-64
2022/08/28 07:04:13;;;;;;;6.75;3.60;;;;;;;21.06;57.40;100653.59;4158959;28;20095;-63
2022/08/28 07:06:16;;;;;;;8.77;3.10;;;;;;;21.02;57.42;100654.56;4141957;28;20077;-61
2022/08/28 07:08:19;;;;;;;9.77;3.78;;;;;;;21.02;57.49;100657.22;4135859;28;20622;-65
2022/08/28 07:10:22;;;;;;;8.00;3.47;;;;;;;21.06;57.20;100658.88;4146878;28;20056;-64
2022/08/28 07:12:26;;;;;;;6.40;3.30;;;;;;;21.02;57.47;100666.00;4146308;28;20049;-65
2022/08/28 07:14:29;;;;;;;10.93;3.70;;;;;;;20.97;57.59;100665.28;4144602;28;20412;-66
2022/08/28 07:16:36;;;;;;;6.95;3.42;;;;;;;21.03;57.32;100664.25;4141712;28;20034;-64
2022/08/28 07:18:40;;;;;;;8.55;3.30;;;;;;;20.96;57.76;100663.53;4147773;28;20041;-64
2022/08/28 07:20:43;;;;;;;6.43;3.00;;;;;;;21.03;57.56;100670.41;4140375;28;20034;-65
2022/08/28 07:22:46;;;;;;;7.07;3.00;;;;;;;21.20;57.29;100667.31;4145625;28;20072;-65
2022/08/28 07:24:56;;;;;;;7.18;3.50;;;;;;;21.25;56.88;100670.69;4142571;28;20039;-65
2022/08/28 07:26:59;;;;;;;8.32;3.75;;;;;;;21.27;56.73;100673.28;4141142;28;20546;-65
2022/08/28 07:29:06;;;;;;;10.27;4.70;;;;;;;21.19;57.35;100670.00;4134891;28;20412;-64
2022/08/28 07:31:15;;;;;;;9.07;3.28;;;;;;;21.25;56.77;100672.47;4147272;28;20454;-64
2022/08/28 07:33:18;;;;;;;10.60;3.63;;;;;;;21.24;57.12;100674.22;4144612;28;20050;-64
2022/08/28 07:35:21;;;;;;;7.90;3.00;;;;;;;21.31;57.08;100679.38;4143163;28;20050;-64
2022/08/28 07:37:24;;;;;;;8.02;3.22;;;;;;;21.38;57.02;100680.97;4147276;28;20409;-63
2022/08/28 07:39:27;;;;;;;9.23;3.70;;;;;;;21.43;56.92;100684.31;4141755;28;20467;-63
2022/08/28 07:41:31;;;;;;;8.35;3.40;;;;;;;;;;4143459;28;20057;-63
2022/08/28 07:45:59;;;;;;;7.00;3.33;;;;;;;21.57;56.42;100690.16;4145577;28;20089;-63
2022/08/28 07:48:04;;;;;;;10.73;3.13;;;;;;;21.70;55.74;100687.13;4141050;28;20034;-62
2022/08/28 07:50:14;;;;;;;6.90;2.88;;;;;;;21.63;56.01;100681.16;4139345;28;20045;-63
2022/08/28 07:52:17;;;;;;;6.65;3.08;;;;;;;21.64;56.25;100692.59;4146299;28;20038;-63
2022/08/28 07:54:20;;;;;;;9.32;3.65;;;;;;;21.75;55.48;100695.81;4159655;28;20472;-63
2022/08/28 07:56:23;;;;;;;5.78;3.22;;;;;;;21.76;55.44;100698.44;4134404;28;20050;-63
2022/08/28 07:58:26;;;;;;;6.05;2.83;;;;;;;21.72;55.20;100696.78;4145347;28;20097;-63
2022/08/28 08:00:29;;;;;;;9.38;3.20;;;;;;;21.67;55.75;100693.41;4149707;28;20639;-63
2022/08/28 08:02:33;;;;;;;6.40;3.55;;;;;;;21.72;55.62;100701.22;4144984;28;20124;-63
2022/08/28 08:04:36;;;;;;;;;;;;;;;21.58;56.04;100696.28;4145014;28;20035;-63
2022/08/28 08:06:41;;;;;;;10.02;4.40;;;;;;;21.82;55.53;100705.31;4142279;28;20019;-63
2022/08/28 08:08:44;;;;;;;;;;;;;;;21.70;56.10;100701.25;4140606;28;20038;-63
2022/08/28 08:10:56;;;;;;;11.70;3.40;;;;;;;21.89;55.61;100706.00;4140415;28;19925;-63
2022/08/28 08:12:59;;;;;;;7.25;3.53;;;;;;;22.02;54.86;100706.53;4144521;28;20061;-64
2022/08/28 08:15:02;;;;;;;6.03;2.63;;;;;;;22.05;54.97;100701.13;4147893;28;20130;-63
2022/08/28 08:17:05;;;;;;;7.00;3.45;;;;;;;22.33;54.17;100708.28;4139582;28;20046;-63
2022/08/28 08:19:12;;;;;;;;;;;;;;;22.27;54.29;100704.88;4141679;28;20034;-63
2022/08/28 08:21:17;;;;;;;9.20;3.42;;;;;;;22.23;54.21;100703.22;4148472;28;20326;-64
2022/08/28 08:23:20;;;;;;;10.02;4.13;;;;;;;22.34;53.87;100704.72;4141610;28;20046;-65
2022/08/28 08:25:23;;;;;;;8.30;3.58;;;;;;;22.39;53.76;100703.66;4147349;28;20038;-65
2022/08/28 08:27:26;;;;;;;9.20;3.90;;;;;;;22.41;53.92;100703.63;4146745;28;20034;-64
2022/08/28 08:29:31;;;;;;;7.10;3.30;;;;;;;22.41;53.44;100704.47;4141122;28;20056;-63
2022/08/28 08:31:34;;;;;;;7.50;3.78;;;;;;;22.48;53.72;100706.00;4138864;28;20038;-63
2022/08/28 08:33:39;;;;;;;8.60;3.65;;;;;;;22.54;53.49;100704.09;4143805;28;20412;-63
2022/08/28 08:35:44;;;;;;;9.65;3.92;;;;;;;22.47;53.70;100703.41;4141314;28;20488;-64
2022/08/28 08:37:47;;;;;;;10.93;3.67;;;;;;;22.53;53.39;100708.53;4138778;28;20034;-63
2022/08/28 08:39:52;;;;;;;7.47;3.40;;;;;;;22.52;53.85;100704.16;4145184;28;20133;-63
2022/08/28 08:41:57;;;;;;;8.75;3.55;;;;;;;22.57;53.80;100707.50;4160522;28;20566;-63
2022/08/28 08:44:06;;;;;;;9.77;3.97;;;;;;;22.60;54.57;100702.09;4144580;28;20143;-63
2022/08/28 08:46:09;;;;;;;7.72;3.38;;;;;;;22.79;53.13;100712.13;4151876;28;20092;-63
2022/08/28 08:48:21;;;;;;;9.77;4.35;;;;;;;22.80;52.86;100712.06;4143685;28;20557;-63
2022/08/28 08:50:28;;;;;;;8.95;3.78;;;;;;;22.75;52.57;100715.78;4146129;28;20125;-63
2022/08/28 08:52:37;;;;;;;8.57;3.10;;;;;;;22.63;53.36;100707.34;4140974;28;20063;-63
2022/08/28 08:54:41;;;;;;;8.38;4.00;;;;;;;22.81;53.44;100708.50;4141972;28;20038;-63
2022/08/28 08:56:46;;;;;;;8.95;4.10;;;;;;;22.97;52.48;100711.53;4140297;28;20053;-64
2022/08/28 08:58:52;;;;;;;9.80;4.40;;;;;;;22.90;53.24;100715.31;4143719;28;20049;-63
2022/08/28 09:01:01;;;;;;;7.95;3.30;;;;;;;23.08;52.73;100708.50;4141107;28;20121;-68
2022/08/28 09:03:09;;;;;;;7.50;3.55;;;;;;;23.18;52.21;100717.91;4129447;28;20412;-64
2022/08/28 09:05:16;;;;;;;8.27;3.35;;;;;;;23.20;53.05;100717.84;4142787;28;20041;-63
2022/08/28 09:07:23;;;;;;;11.88;3.60;;;;;;;23.32;52.63;100714.78;4144676;28;20053;-63
2022/08/28 09:09:31;;;;;;;5.82;3.50;;;;;;;23.54;52.20;100722.00;4157254;28;20052;-63
2022/08/28 09:11:44;;;;;;;8.95;3.30;;;;;;;23.80;51.40;100718.41;4142226;28;20451;-63
2022/08/28 09:13:58;;;;;;;11.30;4.60;;;;;;;23.90;51.54;100718.09;4137490;28;20038;-63
2022/08/28 09:16:06;;;;;;;8.18;3.35;;;;;;;23.99;50.53;100723.94;4143030;28;20160;-63
2022/08/28 09:18:13;;;;;;;7.13;3.58;;;;;;;23.88;51.17;100719.00;4140151;28;20046;-63
2022/08/28 09:20:22;;;;;;;9.50;3.90;;;;;;;24.05;50.34;100721.03;4144141;28;20076;-64
2022/08/28 09:22:36;;;;;;;10.15;3.63;;;;;;;24.13;50.16;100720.75;4142799;28;20057;-63
2022/08/28 09:24:41;;;;;;;9.27;3.33;;;;;;;24.08;50.08;100721.84;4142001;28;20044;-64
2022/08/28 09:26:51;;;;;;;9.00;3.67;;;;;;;24.11;50.60;100722.59;4141877;28;20121;-64
2022/08/28 09:29:04;;;;;;;7.38;3.50;;;;;;;24.11;50.04;100722.59;4146238;28;20563;-64
2022/08/28 09:31:10;;;;;;;9.82;3.85;;;;;;;23.99;50.33;100723.94;4156819;28;20037;-64
2022/08/28 09:33:13;;;;;;;6.50;3.25;;;;;;;23.98;49.93;100722.19;4157842;28;20046;-65
2022/08/28 09:35:27;;;;;;;7.60;3.15;;;;;;;23.91;50.39;100722.50;4142573;28;20034;-64
2022/08/28 09:37:31;;;;;;;7.55;3.75;;;;;;;24.14;49.68;100726.94;4141493;28;20045;-65
2022/08/28 09:39:35;;;;;;;8.48;3.58;;;;;;;24.19;49.32;100730.25;4150114;28;20046;-65
2022/08/28 09:44:13;;;;;;;10.07;3.80;;;;;;;23.97;49.71;100725.75;4145358;28;20038;-63
2022/08/28 09:46:22;;;;;;;9.07;3.75;;;;;;;23.92;49.81;100716.22;4158722;28;20037;-64
2022/08/28 09:48:32;;;;;;;7.65;3.40;;;;;;;23.78;50.05;100722.03;4140813;28;20041;-64